STJ weather

Rosecrans Memorial Airport
St Joseph, Missouri, United States

Public forecast

Using degrees Fahrenheit for public forecast. Weather courtesy of forecast.io.

METAR (pilot weather report)

Retrieved 2019/08/24 16:53 UTC (55 minutes ago):

KSTJ 241653Z 12016G22KT 10SM FEW029 24/17 A3010 RMK AO2 SLP185 T02440167

TAF (pilot weather forecast)

Retrieved 2019/08/24 12:22 UTC (5 hours ago):

TAF KSTJ 241120Z 2412/2512 10011KT P6SM SCT025 BKN100 FM250600 12010KT P6SM VCSH OVC035